createdAt,value
2019-01-13T00:26:55.102Z,99711.96
2019-01-13T00:32:54.532Z,99707.23
2019-01-13T00:35:22.008Z,99709.61
2019-01-13T00:37:49.447Z,99710.92
2019-01-13T00:40:17.061Z,99719.23
2019-01-13T00:42:44.517Z,99718.05
2019-01-13T00:45:12.228Z,99727.89
2019-01-13T00:47:39.682Z,99730.16
2019-01-13T00:50:09.482Z,99727.77
2019-01-13T00:52:36.927Z,99718.55
2019-01-13T00:55:05.060Z,99723.41
2019-01-13T00:57:32.478Z,99723.41
2019-01-13T01:00:00.027Z,99711.08
2019-01-13T01:02:27.472Z,99705.03
2019-01-13T01:04:54.952Z,99710.50
2019-01-13T01:07:22.518Z,99707.06
2019-01-13T01:09:49.948Z,99698.63
2019-01-13T01:12:17.683Z,99704.22
2019-01-13T01:14:45.257Z,99697.31
2019-01-13T01:17:13.082Z,99700.65
2019-01-13T01:19:40.542Z,99698.03
2019-01-13T01:22:07.967Z,99696.82
2019-01-13T01:24:35.449Z,99690.77
2019-01-13T01:27:02.882Z,99691.95
2019-01-13T01:29:30.397Z,99692.30
2019-01-13T01:31:57.787Z,99685.92
2019-01-13T01:34:25.294Z,99683.51
2019-01-13T01:36:54.260Z,99687.31
2019-01-13T01:39:22.032Z,99685.66
2019-01-13T01:41:51.022Z,99682.09
2019-01-13T01:44:18.722Z,99683.05
2019-01-13T01:46:46.132Z,99683.97
2019-01-13T01:49:13.689Z,99690.99
2019-01-13T01:51:41.082Z,99690.77
2019-01-13T01:54:08.581Z,99688.87
2019-01-13T01:56:36.002Z,99684.47
2019-01-13T01:59:03.512Z,99689.11
2019-01-13T02:01:30.902Z,99686.59
2019-01-13T02:03:58.697Z,99688.63
2019-01-13T02:06:26.131Z,99683.64
2019-01-13T02:08:53.568Z,99667.39
2019-01-13T02:11:20.977Z,99664.38
2019-01-13T02:13:48.447Z,99670.31
2019-01-13T02:16:15.844Z,99664.73
2019-01-13T02:18:43.312Z,99668.20
2019-01-13T02:21:10.802Z,99669.50
2019-01-13T02:23:38.242Z,99669.73
2019-01-13T02:26:05.728Z,99660.60
2019-01-13T02:28:33.157Z,99662.12
2019-01-13T02:31:00.632Z,99655.59
2019-01-13T02:33:28.044Z,99645.40
2019-01-13T02:35:55.497Z,99642.20
2019-01-13T02:38:22.997Z,99640.18
2019-01-13T02:40:50.437Z,99628.91
2019-01-13T02:43:17.958Z,99628.44
2019-01-13T02:45:45.572Z,99628.23
2019-01-13T02:48:13.117Z,99635.83
2019-01-13T02:50:40.624Z,99639.59
2019-01-13T02:53:08.036Z,99637.72
2019-01-13T02:55:35.584Z,99639.98
2019-01-13T02:58:04.207Z,99637.37
2019-01-13T03:00:31.674Z,99637.57
2019-01-13T03:02:59.669Z,99637.57
2019-01-13T03:05:27.689Z,99628.91
2019-01-13T03:07:55.137Z,99633.66
2019-01-13T03:10:24.344Z,99630.84
2019-01-13T03:12:51.872Z,99633.31
2019-01-13T03:15:20.742Z,99634.28
2019-01-13T03:17:48.468Z,99641.05
2019-01-13T03:20:16.015Z,99635.93
2019-01-13T03:22:44.166Z,99637.22
2019-01-13T03:25:13.895Z,99627.75
2019-01-13T03:27:41.514Z,99611.61
2019-01-13T03:30:14.965Z,99625.01
2019-01-13T03:32:42.403Z,99631.53
2019-01-13T03:35:09.888Z,99623.60
2019-01-13T03:37:37.327Z,99621.70
2019-01-13T03:40:08.837Z,99621.92
2019-01-13T03:42:36.316Z,99620.86
2019-01-13T03:45:04.402Z,99621.48
2019-01-13T03:47:31.894Z,99608.53
2019-01-13T03:49:59.351Z,99606.16
2019-01-13T03:52:26.812Z,99604.03
2019-01-13T03:54:54.206Z,99600.22
2019-01-13T03:57:21.679Z,99590.48
2019-01-13T03:59:49.123Z,99589.42
2019-01-13T04:02:16.682Z,99573.42
2019-01-13T04:04:44.106Z,99569.74
2019-01-13T04:07:11.532Z,99554.08
2019-01-13T04:09:38.943Z,99562.98
2019-01-13T04:12:06.399Z,99557.38
2019-01-13T04:14:33.809Z,99554.91
2019-01-13T04:17:01.592Z,99556.69
2019-01-13T04:19:29.029Z,99548.62
2019-01-13T04:21:56.617Z,99541.72
2019-01-13T04:24:24.064Z,99537.45
2019-01-13T04:26:51.712Z,99527.84
2019-01-13T04:29:19.112Z,99522.85
2019-01-13T04:31:46.576Z,99509.56
2019-01-13T04:34:14.367Z,99499.02
2019-01-13T04:36:41.835Z,99490.45
2019-01-13T04:39:09.216Z,99489.63
2019-01-13T04:41:36.746Z,99492.83
2019-01-13T04:44:04.422Z,99492.58
2019-01-13T04:46:31.973Z,99488.55
2019-01-13T04:48:59.362Z,99490.92
2019-01-13T04:51:26.899Z,99478.94
2019-01-13T04:53:54.387Z,99478.10
2019-01-13T04:56:21.817Z,99480.47
2019-01-13T04:58:49.294Z,99476.44
2019-01-13T05:01:16.687Z,99476.78
2019-01-13T05:03:44.172Z,99478.44
2019-01-13T05:06:11.592Z,99477.96
2019-01-13T05:08:39.038Z,99465.28
2019-01-13T05:11:06.442Z,99471.91
2019-01-13T05:13:33.992Z,99467.64
2019-01-13T05:16:01.414Z,99456.95
2019-01-13T05:18:28.863Z,99445.67
2019-01-13T05:20:56.283Z,99438.32
2019-01-13T05:23:23.737Z,99447.33
2019-01-13T05:25:51.187Z,99451.14
2019-01-13T05:28:18.657Z,99448.52
2019-01-13T05:30:46.061Z,99446.97
2019-01-13T05:33:13.555Z,99438.55
2019-01-13T05:35:40.999Z,99432.71
2019-01-13T05:38:08.459Z,99413.52
2019-01-13T05:40:35.972Z,99418.50
2019-01-13T05:43:03.547Z,99422.53
2019-01-13T05:45:30.968Z,99411.49
2019-01-13T05:47:58.918Z,99398.56
2019-01-13T05:50:26.373Z,99401.80
2019-01-13T05:52:54.174Z,99394.89
2019-01-13T05:55:21.732Z,99392.52
2019-01-13T05:57:49.171Z,99392.52
2019-01-13T06:00:18.747Z,99386.72
2019-01-13T06:02:46.252Z,99384.69
2019-01-13T06:05:13.765Z,99377.80
2019-01-13T06:07:41.822Z,99369.70
2019-01-13T06:10:10.801Z,99364.72
2019-01-13T06:12:38.307Z,99363.28
2019-01-13T06:15:06.870Z,99364.59
2019-01-13T06:17:34.272Z,99355.00
2019-01-13T06:20:01.799Z,99358.67
2019-01-13T06:22:29.194Z,99352.81
2019-01-13T06:24:56.772Z,99344.41
2019-01-13T06:27:24.222Z,99348.45
2019-01-13T06:29:51.753Z,99341.92
2019-01-13T06:32:21.739Z,99343.59
2019-01-13T06:34:49.202Z,99325.39
2019-01-13T06:37:18.822Z,99330.28
2019-01-13T06:39:46.332Z,99323.41
2019-01-13T06:42:13.757Z,99322.33
2019-01-13T06:44:44.430Z,99320.63
2019-01-13T06:47:11.917Z,99322.30
2019-01-13T06:49:42.215Z,99320.28
2019-01-13T06:52:13.616Z,99313.41
2019-01-13T06:54:41.216Z,99317.08
2019-01-13T06:57:08.602Z,99306.26
2019-01-13T06:59:38.022Z,99306.48
2019-01-13T07:02:06.797Z,99299.95
2019-01-13T07:04:34.262Z,99291.89
2019-01-13T07:07:04.708Z,99290.33
2019-01-13T07:09:32.172Z,99284.03
2019-01-13T07:12:23.862Z,99284.99
2019-01-13T07:14:51.317Z,99279.28
2019-01-13T07:17:18.723Z,99281.04
2019-01-13T07:19:46.193Z,99275.11
2019-01-13T07:22:15.877Z,99271.89
2019-01-13T07:24:43.382Z,99269.28
2019-01-13T07:27:10.758Z,99261.67
2019-01-13T07:29:38.748Z,99254.05
2019-01-13T07:32:10.731Z,99254.28
2019-01-13T07:34:36.016Z,99249.54
2019-01-13T07:37:03.523Z,99248.23
2019-01-13T07:39:33.767Z,99235.84
2019-01-13T07:42:01.190Z,99227.55
2019-01-13T07:44:28.792Z,99223.70
2019-01-13T07:46:56.208Z,99219.78
2019-01-13T07:49:23.677Z,99213.59
2019-01-13T07:51:51.587Z,99212.77
2019-01-13T07:54:19.802Z,99210.16
2019-01-13T07:56:47.487Z,99216.64
2019-01-13T07:59:16.157Z,99207.65
2019-01-13T08:01:43.754Z,99188.38
2019-01-13T08:04:11.405Z,99191.00
2019-01-13T08:06:38.937Z,99196.33
2019-01-13T08:09:08.462Z,99186.20
2019-01-13T08:11:35.913Z,99187.18
2019-01-13T08:14:03.551Z,99161.44
2019-01-13T08:16:30.987Z,99168.25
2019-01-13T08:18:58.386Z,99158.59
2019-01-13T08:21:25.832Z,99146.63
2019-01-13T08:23:53.202Z,99147.11
2019-01-13T08:26:20.672Z,99126.20
2019-01-13T08:28:48.088Z,99131.70
2019-01-13T08:31:15.590Z,99129.42
2019-01-13T08:33:43.012Z,99121.12
2019-01-13T08:36:10.502Z,99123.47
2019-01-13T08:38:37.920Z,99127.61
2019-01-13T08:41:05.369Z,99118.09
2019-01-13T08:43:32.797Z,99109.85
2019-01-13T08:46:00.243Z,99095.81
2019-01-13T08:48:27.752Z,99096.63
2019-01-13T08:50:55.247Z,99094.92
2019-01-13T08:53:22.653Z,99084.83
2019-01-13T08:55:51.162Z,99093.01
2019-01-13T08:58:18.632Z,99086.20
2019-01-13T09:00:46.140Z,99076.44
2019-01-13T09:03:13.834Z,99062.87
2019-01-13T09:05:41.382Z,99068.73
2019-01-13T09:08:08.899Z,99066.81
2019-01-13T09:10:36.342Z,99068.12
2019-01-13T09:13:04.377Z,99069.97
2019-01-13T09:15:31.882Z,99068.17
2019-01-13T09:17:59.322Z,99058.74
2019-01-13T09:20:28.652Z,99049.59
2019-01-13T09:22:57.804Z,99046.20
2019-01-13T09:25:25.251Z,99030.88
2019-01-13T09:27:52.696Z,99026.54
2019-01-13T09:30:25.421Z,99012.81
2019-01-13T09:32:53.007Z,99008.28
2019-01-13T09:35:20.522Z,99007.79
2019-01-13T09:37:48.261Z,99004.55
2019-01-13T09:40:18.293Z,99014.53
2019-01-13T09:42:45.862Z,99003.94
2019-01-13T09:45:13.375Z,99007.09
2019-01-13T09:47:40.855Z,99004.97
2019-01-13T09:50:10.232Z,99005.91
2019-01-13T09:52:37.835Z,98999.73
2019-01-13T09:55:06.682Z,99002.48
2019-01-13T09:57:37.815Z,99000.95
2019-01-13T10:00:10.390Z,98993.80
2019-01-13T10:02:37.851Z,98997.56
2019-01-13T10:05:05.652Z,98988.56
2019-01-13T10:07:36.090Z,98983.16
2019-01-13T10:10:04.467Z,98976.81
2019-01-13T10:12:31.951Z,98972.34
2019-01-13T10:14:59.336Z,98973.03
2019-01-13T10:17:26.827Z,98957.11
2019-01-13T10:19:54.306Z,98949.77
2019-01-13T10:22:21.877Z,98948.98
2019-01-13T10:24:52.296Z,98951.80
2019-01-13T10:27:19.802Z,98935.97
2019-01-13T10:29:47.349Z,98931.73
2019-01-13T10:35:19.446Z,98938.78
2019-01-13T10:37:51.538Z,98941.42
2019-01-13T10:40:20.581Z,98938.97
2019-01-13T10:42:49.541Z,98907.25
2019-01-13T10:45:17.152Z,98917.92
2019-01-13T10:47:44.632Z,98908.32
2019-01-13T10:51:18.670Z,98903.30
2019-01-13T10:53:48.971Z,98907.72
2019-01-13T10:56:16.502Z,98899.38
2019-01-13T10:58:44.186Z,98898.49
2019-01-13T11:01:11.683Z,98887.20
2019-01-13T11:03:39.567Z,98888.81
2019-01-13T11:09:21.537Z,98880.02
2019-01-13T11:11:52.407Z,98883.47
2019-01-13T11:14:19.927Z,98859.20
2019-01-13T11:16:47.346Z,98862.18
2019-01-13T11:19:24.317Z,98857.65
2019-01-13T11:21:52.847Z,98855.33
2019-01-13T11:24:20.332Z,98857.16
2019-01-13T11:26:47.786Z,98852.59
2019-01-13T11:29:15.292Z,98856.53
2019-01-13T11:31:42.827Z,98845.73
2019-01-13T11:34:10.424Z,98839.69
2019-01-13T11:36:37.987Z,98831.95
2019-01-13T11:39:08.522Z,98828.53
2019-01-13T11:41:36.066Z,98825.28
2019-01-13T11:44:03.807Z,98822.53
2019-01-13T11:46:33.827Z,98799.44
2019-01-13T11:49:04.046Z,98805.85
2019-01-13T11:51:31.541Z,98800.45
2019-01-13T11:53:59.306Z,98800.12
2019-01-13T11:56:26.968Z,98799.09
2019-01-13T11:58:54.741Z,98787.79
2019-01-13T12:01:22.427Z,98782.69
2019-01-13T12:03:50.052Z,98792.16
2019-01-13T12:06:17.683Z,98772.38
2019-01-13T12:08:45.371Z,98778.08
2019-01-13T12:11:13.102Z,98776.77
2019-01-13T12:13:40.667Z,98778.88
2019-01-13T12:16:08.639Z,98764.80
2019-01-13T12:18:40.462Z,98763.34
2019-01-13T12:21:05.781Z,98755.00
2019-01-13T12:23:33.862Z,98749.62
2019-01-13T12:26:01.778Z,98732.09
2019-01-13T12:28:29.538Z,98744.56
2019-01-13T12:30:57.346Z,98738.02
2019-01-13T12:33:25.117Z,98732.77
2019-01-13T12:35:52.940Z,98731.47
2019-01-13T12:38:20.827Z,98733.73
2019-01-13T12:40:48.701Z,98731.73
2019-01-13T12:43:16.586Z,98718.81
2019-01-13T12:45:44.362Z,98716.83
2019-01-13T12:48:13.086Z,98724.86
2019-01-13T12:50:43.391Z,98712.39
2019-01-13T12:53:11.002Z,98710.91
2019-01-13T12:55:39.141Z,98710.28
2019-01-13T12:58:06.841Z,98700.93
2019-01-13T13:00:34.881Z,98686.52
2019-01-13T13:03:02.845Z,98690.77
2019-01-13T13:05:30.863Z,98669.00
2019-01-13T13:07:58.623Z,98657.70
2019-01-13T13:10:44.882Z,98653.95
2019-01-13T13:13:13.569Z,98647.55
2019-01-13T13:15:41.517Z,98654.09
2019-01-13T13:18:09.417Z,98640.13
2019-01-13T13:20:37.291Z,98634.89
2019-01-13T13:23:05.368Z,98643.25
2019-01-13T13:25:33.268Z,98634.08
2019-01-13T13:28:01.281Z,98630.16
2019-01-13T13:30:29.345Z,98629.30
2019-01-13T13:32:57.161Z,98619.64
2019-01-13T13:35:25.167Z,98616.70
2019-01-13T13:37:53.628Z,98608.20
2019-01-13T13:40:23.564Z,98601.30
2019-01-13T13:42:54.220Z,98601.48
2019-01-13T13:45:22.531Z,98609.33
2019-01-13T13:47:50.838Z,98597.05
2019-01-13T13:50:21.146Z,98604.23
2019-01-13T13:52:49.272Z,98598.19
2019-01-13T13:55:17.468Z,98615.70
2019-01-13T13:57:45.411Z,98607.34
2019-01-13T14:00:19.145Z,98612.41
2019-01-13T14:02:47.110Z,98596.38
2019-01-13T14:05:15.161Z,98588.34
2019-01-13T14:07:43.141Z,98591.46
2019-01-13T14:10:18.151Z,98583.92
2019-01-13T14:12:46.283Z,98592.80
2019-01-13T14:15:14.326Z,98586.72
2019-01-13T14:17:42.305Z,98564.97
2019-01-13T14:20:12.616Z,98583.60
2019-01-13T14:48:47.851Z,98530.84
2019-01-13T15:27:21.280Z,98495.53
2019-01-13T17:04:52.490Z,98459.63
2019-01-13T17:10:58.577Z,98454.21
2019-01-13T17:20:22.301Z,98459.45
2019-01-13T17:26:39.420Z,98458.50
2019-01-13T17:29:47.275Z,98436.11
2019-01-13T17:35:59.403Z,98519.36
2019-01-13T17:38:44.131Z,98531.84
2019-01-13T17:49:14.922Z,98540.41
2019-01-13T17:51:42.802Z,98506.58
2019-01-13T17:54:10.718Z,98518.23
2019-01-13T17:56:38.763Z,98517.74
2019-01-13T17:59:06.862Z,98525.77
2019-01-13T18:01:47.203Z,98531.03
2019-01-13T18:04:15.426Z,98532.20
2019-01-13T18:06:43.377Z,98513.58
2019-01-13T18:09:11.421Z,98517.86
2019-01-13T18:11:39.409Z,98524.66
2019-01-13T18:14:07.370Z,98533.50
2019-01-13T18:16:35.305Z,98533.09
2019-01-13T18:19:03.305Z,98551.68
2019-01-13T18:21:32.669Z,98561.96
2019-01-13T18:24:00.857Z,98577.84
2019-01-13T18:26:28.949Z,98597.95
2019-01-13T18:28:56.967Z,98593.67
2019-01-13T18:31:24.947Z,98584.61
2019-01-13T18:33:53.407Z,98565.09
2019-01-13T18:53:41.425Z,98528.96
2019-01-13T18:57:09.856Z,98514.98
2019-01-13T19:06:47.194Z,98527.58
2019-01-13T19:13:48.085Z,98533.63
2019-01-13T19:33:36.107Z,98551.66
2019-01-13T19:44:02.769Z,98578.16
2019-01-13T19:46:30.753Z,98583.87
2019-01-13T19:56:18.725Z,98587.66
2019-01-13T19:58:49.124Z,98587.17
2019-01-13T20:01:20.660Z,98584.14
2019-01-13T20:03:54.806Z,98588.09
2019-01-13T20:06:26.806Z,98584.67
2019-01-13T20:34:49.046Z,98626.36
2019-01-13T20:52:32.040Z,98633.97
2019-01-13T21:16:43.247Z,98627.19
2019-01-13T21:19:11.087Z,98626.52
2019-01-13T21:21:39.091Z,98619.10
2019-01-13T21:24:07.116Z,98625.54
2019-01-13T21:26:34.857Z,98630.63
2019-01-13T21:29:02.877Z,98627.33
2019-01-13T21:31:30.772Z,98621.14
2019-01-13T21:33:59.058Z,98619.79
2019-01-13T21:36:27.141Z,98629.25
2019-01-13T21:38:56.867Z,98632.55
2019-01-13T21:41:25.009Z,98617.09
2019-01-13T21:43:52.925Z,98631.36
2019-01-13T21:46:20.731Z,98636.66
2019-01-13T21:48:48.703Z,98632.45
2019-01-13T21:51:16.386Z,98619.00
2019-01-13T21:53:44.367Z,98635.28
2019-01-13T21:56:12.351Z,98620.64
2019-01-13T21:58:40.286Z,98633.41
2019-01-13T22:01:08.071Z,98624.47
2019-01-13T22:03:35.626Z,98640.00
2019-01-13T22:06:05.209Z,98631.55
2019-01-13T22:08:33.206Z,98598.76
2019-01-13T22:11:09.572Z,98634.41
2019-01-13T22:13:37.110Z,98635.71
2019-01-13T22:16:04.657Z,98635.51
2019-01-13T22:18:32.161Z,98643.83
2019-01-13T22:20:59.578Z,98649.55
2019-01-13T22:23:27.539Z,98654.11
2019-01-13T22:25:55.011Z,98656.39
2019-01-13T22:28:22.646Z,98660.84
2019-01-13T22:30:50.027Z,98664.10
2019-01-13T22:33:17.513Z,98658.52
2019-01-13T22:35:48.239Z,98655.09
2019-01-13T22:38:14.245Z,98662.11
2019-01-13T22:40:41.649Z,98668.11
2019-01-13T22:43:09.126Z,98682.72
2019-01-13T22:45:36.675Z,98681.28
2019-01-13T22:48:04.452Z,98684.72
2019-01-13T22:50:31.920Z,98687.94
2019-01-13T22:52:59.451Z,98692.55
2019-01-13T22:55:26.981Z,98694.05
2019-01-13T22:57:54.461Z,98709.59
2019-01-13T23:01:15.595Z,98698.17
2019-01-13T23:03:43.071Z,98689.85
2019-01-13T23:06:10.512Z,98681.33
2019-01-13T23:08:37.956Z,98697.77
2019-01-13T23:11:05.376Z,98701.15
2019-01-13T23:13:32.860Z,98704.70
2019-01-13T23:16:00.266Z,98718.25
2019-01-13T23:18:27.650Z,98720.85
2019-01-13T23:20:55.160Z,98725.13
2019-01-13T23:23:22.616Z,98732.69
2019-01-13T23:25:50.071Z,98740.56
2019-01-13T23:28:17.581Z,98731.42
2019-01-13T23:30:45.047Z,98744.97
2019-01-13T23:33:12.582Z,98752.31
2019-01-13T23:35:40.186Z,98751.37
2019-01-13T23:38:07.581Z,98763.66
2019-01-13T23:40:35.041Z,98750.47
2019-01-13T23:43:02.587Z,98767.44
2019-01-13T23:45:30.016Z,98767.44
2019-01-13T23:47:57.426Z,98775.73
2019-01-13T23:50:24.864Z,98773.97
2019-01-13T23:52:52.370Z,98773.81
2019-01-13T23:55:19.961Z,98777.53
2019-01-13T23:57:47.351Z,98779.52
